Time;durP1;ratioP1;P1;durP2;ratioP2;P2;SDS_P1;SDS_P2;PMS_P1;PMS_P2;Temp;Humidity;BMP_temperature;BMP_pressure;BME280_temperature;BME280_humidity;BME280_pressure;Samples;Min_cycle;Max_cycle;Signal;HPM_P1;HPM_P2
2023/01/29 00:02:21;;;;;;;43.80;22.88;;;;;;;;;;5070985;28;20243;-78
2023/01/29 00:04:47;;;;;;;34.35;18.55;;;;;;;;;;5081878;28;20199;-79
2023/01/29 00:07:13;;;;;;;47.25;25.05;;;;;;;;;;5084935;28;20174;-78
2023/01/29 00:09:39;;;;;;;51.05;25.20;;;;;;;;;;5067931;28;20655;-79
2023/01/29 00:12:08;;;;;;;52.95;25.00;;;;;;;;;;5083836;28;20257;-78
2023/01/29 00:14:34;;;;;;;43.63;24.00;;;;;;;;;;5080566;28;20209;-78
2023/01/29 00:17:00;;;;;;;52.00;25.63;;;;;;;;;;5083959;28;20227;-78
2023/01/29 00:19:26;;;;;;;51.10;25.27;;;;;;;;;;5080238;28;20423;-78
2023/01/29 00:21:52;;;;;;;49.03;24.97;;;;;;;;;;5084751;28;20454;-80
2023/01/29 00:24:18;;;;;;;47.28;22.38;;;;;;;;;;5093927;28;20496;-79
2023/01/29 00:26:45;;;;;;;46.75;24.30;;;;;;;;;;5089209;28;20189;-79
2023/01/29 00:29:11;;;;;;;50.08;27.58;;;;;;;;;;5080779;28;20198;-78
2023/01/29 00:31:37;;;;;;;42.15;24.27;;;;;;;;;;5083738;28;20183;-79
2023/01/29 00:34:03;;;;;;;45.65;23.60;;;;;;;;;;5080538;28;20706;-79
2023/01/29 00:36:29;;;;;;;47.00;23.90;;;;;;;;;;5084116;28;20193;-80
2023/01/29 00:38:57;;;;;;;55.92;26.38;;;;;;;;;;5081140;28;20435;-78
2023/01/29 00:46:53;;;;;;;39.38;22.30;;;;;;;;;;5071102;28;20244;-79
2023/01/29 00:49:19;;;;;;;52.72;24.45;;;;;;;;;;5081093;28;20293;-79
2023/01/29 00:52:22;;;;;;;48.60;24.65;;;;;;;;;;5084131;28;20214;-78
2023/01/29 00:54:31;;;;;;;43.88;22.45;;;;;;;;;;5080507;28;20224;-78
2023/01/29 00:56:57;;;;;;;57.88;27.17;;;;;;;;;;5084033;28;20177;-78
2023/01/29 00:59:23;;;;;;;47.37;24.90;;;;;;;;;;5081376;28;20196;-78
2023/01/29 01:04:34;;;;;;;44.60;23.70;;;;;;;;;;5081230;28;20204;-78
2023/01/29 01:07:00;;;;;;;49.20;22.15;;;;;;;;;;5084220;28;20270;-79
2023/01/29 01:12:10;;;;;;;51.03;26.02;;;;;;;;;;5084413;28;20477;-79
2023/01/29 01:14:42;;;;;;;54.25;26.25;;;;;;;;;;5080926;28;20201;-79
2023/01/29 01:17:08;;;;;;;51.53;25.30;;;;;;;;;;5084193;28;20172;-79
2023/01/29 01:19:34;;;;;;;50.55;26.83;;;;;;;;;;5080823;28;20194;-79
2023/01/29 01:22:00;;;;;;;56.05;26.15;;;;;;;;;;5083759;28;20188;-79
2023/01/29 01:24:26;;;;;;;64.07;27.48;;;;;;;;;;5080178;28;20195;-80
2023/01/29 01:26:52;;;;;;;50.40;24.10;;;;;;;;;;5082841;28;20558;-79
2023/01/29 01:29:18;;;;;;;51.30;26.90;;;;;;;;;;5080276;28;20204;-80
2023/01/29 01:31:44;;;;;;;64.05;29.63;;;;;;;;;;5065136;28;20425;-80
2023/01/29 01:34:10;;;;;;;58.47;28.10;;;;;;;;;;5080717;28;20210;-80
2023/01/29 01:36:36;;;;;;;60.50;28.50;;;;;;;;;;5083730;28;20190;-79
2023/01/29 01:39:03;;;;;;;56.03;27.30;;;;;;;;;;5076017;28;20569;-80
2023/01/29 01:41:29;;;;;;;54.83;29.02;;;;;;;;;;5087046;28;20432;-79
2023/01/29 01:43:57;;;;;;;58.25;24.27;;;;;;;;;;5084530;28;20197;-78
2023/01/29 01:46:23;;;;;;;46.38;22.13;;;;;;;;;;5070013;28;20206;-80
2023/01/29 01:48:58;;;;;;;61.40;28.20;;;;;;;;;;5083789;28;20264;-79
2023/01/29 01:51:25;;;;;;;68.53;30.02;;;;;;;;;;5087922;28;20169;-79
2023/01/29 01:53:57;;;;;;;77.47;29.65;;;;;;;;;;5076309;28;20210;-78
2023/01/29 01:56:27;;;;;;;52.40;26.33;;;;;;;;;;5087997;28;20191;-79
2023/01/29 01:58:57;;;;;;;62.55;29.35;;;;;;;;;;5084871;28;20186;-80
2023/01/29 02:01:27;;;;;;;58.67;28.25;;;;;;;;;;5087996;28;20224;-77
2023/01/29 02:09:38;;;;;;;47.70;21.85;;;;;;;;;;5082072;28;20300;-78
2023/01/29 02:12:08;;;;;;;51.38;25.40;;;;;;;;;;5075534;28;20190;-78
2023/01/29 02:14:38;;;;;;;51.92;25.33;;;;;;;;;;5097234;28;20209;-77
2023/01/29 02:17:08;;;;;;;61.03;30.00;;;;;;;;;;5080491;28;20185;-79
2023/01/29 02:19:49;;;;;;;61.40;26.80;;;;;;;;;;5084576;28;20186;-78
2023/01/29 02:22:43;;;;;;;63.25;27.98;;;;;;;;;;5087294;28;20187;-79
2023/01/29 02:25:12;;;;;;;64.38;28.13;;;;;;;;;;5083660;28;20190;-78
2023/01/29 02:27:48;;;;;;;53.67;26.88;;;;;;;;;;5078384;28;20182;-79
2023/01/29 02:30:19;;;;;;;72.28;29.55;;;;;;;;;;5079216;28;20185;-78
2023/01/29 02:32:59;;;;;;;59.85;29.92;;;;;;;;;;5086445;28;20658;-78
2023/01/29 02:35:28;;;;;;;37.92;22.70;;;;;;;;;;5064317;28;20209;-77
2023/01/29 02:38:00;;;;;;;54.95;25.90;;;;;;;;;;5085759;28;20181;-79
2023/01/29 02:40:31;;;;;;;62.83;27.70;;;;;;;;;;5082747;28;20200;-78
2023/01/29 02:43:12;;;;;;;56.90;27.70;;;;;;;;;;5086070;28;20202;-78
2023/01/29 02:45:46;;;;;;;59.35;28.50;;;;;;;;;;5082517;28;20204;-78
2023/01/29 02:48:20;;;;;;;60.83;27.60;;;;;;;;;;5086842;28;20264;-77
2023/01/29 02:51:00;;;;;;;58.05;28.00;;;;;;;;;;5084937;28;20722;-78
2023/01/29 02:53:37;;;;;;;57.35;27.30;;;;;;;;;;5077924;28;20208;-78
2023/01/29 02:56:09;;;;;;;64.10;29.58;;;;;;;;;;5083544;28;20237;-79
2023/01/29 02:58:38;;;;;;;61.75;26.98;;;;;;;;;;5080552;28;20225;-78
2023/01/29 03:01:08;;;;;;;47.20;24.25;;;;;;;;;;5084071;28;20196;-78
2023/01/29 03:03:38;;;;;;;55.30;29.08;;;;;;;;;;5083351;28;20240;-78
2023/01/29 03:06:10;;;;;;;62.83;29.75;;;;;;;;;;5086855;28;20194;-78
2023/01/29 03:08:44;;;;;;;58.72;29.02;;;;;;;;;;5080311;28;20716;-76
2023/01/29 03:11:14;;;;;;;61.13;27.75;;;;;;;;;;5086085;28;20178;-78
2023/01/29 03:13:43;;;;;;;68.88;28.75;;;;;;;;;;5081474;28;20297;-79
2023/01/29 03:16:21;;;;;;;73.25;31.48;;;;;;;;;;5086001;28;20182;-80
2023/01/29 03:19:00;;;;;;;66.25;30.75;;;;;;;;;;5082819;28;20658;-79
2023/01/29 03:32:37;;;;;;;59.70;28.40;;;;;;;;;;5085095;28;20285;-79
2023/01/29 03:35:04;;;;;;;79.28;29.38;;;;;;;;;;5064473;28;20206;-80
2023/01/29 03:37:42;;;;;;;66.40;29.02;;;;;;;;;;5085555;28;20182;-79
2023/01/29 03:40:08;;;;;;;64.07;27.63;;;;;;;;;;5082641;28;20198;-78
2023/01/29 03:42:53;;;;;;;60.97;28.55;;;;;;;;;;5085994;28;20177;-79
2023/01/29 03:45:30;;;;;;;64.25;31.05;;;;;;;;;;5082599;28;20209;-79
2023/01/29 03:48:16;;;;;;;64.60;29.58;;;;;;;;;;5086065;28;20268;-78
2023/01/29 03:50:48;;;;;;;56.47;27.00;;;;;;;;;;5082574;28;20755;-79
2023/01/29 03:53:19;;;;;;;72.57;31.83;;;;;;;;;;5068483;28;20179;-78
2023/01/29 03:56:02;;;;;;;65.95;26.90;;;;;;;;;;5087120;28;20530;-78
2023/01/29 03:58:31;;;;;;;64.22;27.67;;;;;;;;;;5092927;28;20289;-78
2023/01/29 04:01:17;;;;;;;74.63;33.65;;;;;;;;;;5089483;28;20711;-78
2023/01/29 04:03:46;;;;;;;75.60;31.00;;;;;;;;;;5088626;28;20224;-79
2023/01/29 04:06:16;;;;;;;61.50;27.85;;;;;;;;;;5093114;28;20732;-79
2023/01/29 04:08:45;;;;;;;64.28;29.25;;;;;;;;;;5082196;28;20191;-78
2023/01/29 04:11:13;;;;;;;58.70;25.83;;;;;;;;;;5083480;28;20233;-79
2023/01/29 04:13:40;;;;;;;69.65;31.02;;;;;;;;;;5080472;28;20215;-79
2023/01/29 04:16:08;;;;;;;55.25;26.23;;;;;;;;;;5084918;28;20263;-78
2023/01/29 04:18:34;;;;;;;47.95;22.40;;;;;;;;;;5081504;28;20174;-79
2023/01/29 04:21:00;;;;;;;60.78;27.52;;;;;;;;;;5084733;28;20268;-78
2023/01/29 04:23:27;;;;;;;50.80;26.00;;;;;;;;;;5081261;28;20694;-79
2023/01/29 04:25:57;;;;;;;56.08;27.95;;;;;;;;;;5083904;28;20249;-79
2023/01/29 04:28:28;;;;;;;63.00;26.90;;;;;;;;;;5085548;28;20256;-79
2023/01/29 04:30:58;;;;;;;57.33;26.42;;;;;;;;;;5077118;28;20593;-80
2023/01/29 04:33:30;;;;;;;67.00;30.17;;;;;;;;;;5080894;28;20621;-78
2023/01/29 04:36:09;;;;;;;56.28;24.65;;;;;;;;;;5084141;28;20202;-80
2023/01/29 04:38:47;;;;;;;58.50;25.70;;;;;;;;;;5080748;28;20625;-79
2023/01/29 04:41:30;;;;;;;65.78;30.15;;;;;;;;;;5066354;28;20181;-79
2023/01/29 04:43:56;;;;;;;59.28;29.83;;;;;;;;;;5080917;28;20196;-79
2023/01/29 04:46:22;;;;;;;60.67;29.10;;;;;;;;;;5084236;28;20218;-78
2023/01/29 04:49:06;;;;;;;57.87;26.57;;;;;;;;;;5080302;28;20440;-79
2023/01/29 04:51:36;;;;;;;53.28;26.15;;;;;;;;;;5084371;28;20428;-79
2023/01/29 04:54:22;;;;;;;62.47;28.02;;;;;;;;;;5080837;28;20218;-80
2023/01/29 04:56:51;;;;;;;49.70;24.55;;;;;;;;;;5083906;28;20970;-81
2023/01/29 04:59:21;;;;;;;52.92;25.10;;;;;;;;;;5081395;28;20188;-81
2023/01/29 05:01:47;;;;;;;64.05;28.58;;;;;;;;;;5083180;28;20649;-81
2023/01/29 05:04:15;;;;;;;61.17;31.80;;;;;;;;;;5070091;28;20240;-81
2023/01/29 05:06:45;;;;;;;55.72;29.45;;;;;;;;;;5084462;28;20186;-81
2023/01/29 05:09:12;;;;;;;62.30;30.60;;;;;;;;;;5073434;28;20269;-80
2023/01/29 05:11:38;;;;;;;64.00;31.15;;;;;;;;;;5083711;28;20227;-81
2023/01/29 05:14:06;;;;;;;54.45;27.77;;;;;;;;;;5084152;28;20201;-80
2023/01/29 05:16:40;;;;;;;66.68;27.73;;;;;;;;;;5087800;28;20582;-81
2023/01/29 05:19:08;;;;;;;57.63;27.65;;;;;;;;;;5084913;28;20657;-80
2023/01/29 05:21:34;;;;;;;55.25;26.77;;;;;;;;;;5080325;28;20485;-79
2023/01/29 05:24:26;;;;;;;54.15;26.73;;;;;;;;;;5084703;28;20182;-80
2023/01/29 05:29:42;;;;;;;56.45;28.88;;;;;;;;;;5083924;28;20229;-80
2023/01/29 05:32:08;;;;;;;66.10;29.40;;;;;;;;;;5087107;28;20248;-80
2023/01/29 05:34:34;;;;;;;47.53;22.70;;;;;;;;;;5083144;28;20217;-78
2023/01/29 05:37:00;;;;;;;55.77;25.40;;;;;;;;;;5087147;28;20475;-79
2023/01/29 05:39:26;;;;;;;50.58;28.10;;;;;;;;;;5072007;28;20467;-78
2023/01/29 05:41:52;;;;;;;54.40;28.60;;;;;;;;;;5082151;28;20178;-79
2023/01/29 05:44:19;;;;;;;50.60;25.52;;;;;;;;;;5081952;28;21311;-79
2023/01/29 05:46:45;;;;;;;47.97;24.08;;;;;;;;;;5080495;28;20422;-80
2023/01/29 05:49:11;;;;;;;50.10;26.00;;;;;;;;;;5087428;28;20212;-79
2023/01/29 05:51:37;;;;;;;53.67;26.15;;;;;;;;;;5084145;28;20666;-80
2023/01/29 05:54:03;;;;;;;60.13;28.47;;;;;;;;;;5086252;28;20278;-79
2023/01/29 05:56:29;;;;;;;38.03;20.33;;;;;;;;;;5070495;28;20471;-79
2023/01/29 05:58:55;;;;;;;46.17;22.87;;;;;;;;;;5086413;28;20221;-80
2023/01/29 06:01:23;;;;;;;58.55;26.98;;;;;;;;;;5087442;28;20435;-82
2023/01/29 06:03:49;;;;;;;51.90;25.13;;;;;;;;;;5091625;28;20240;-79
2023/01/29 06:06:15;;;;;;;50.08;25.52;;;;;;;;;;5083028;28;20281;-79
2023/01/29 06:08:41;;;;;;;55.75;25.98;;;;;;;;;;5083694;28;20197;-78
2023/01/29 06:11:08;;;;;;;56.72;27.63;;;;;;;;;;5065274;28;20581;-79
2023/01/29 06:13:34;;;;;;;49.95;26.13;;;;;;;;;;5087124;28;20194;-78
2023/01/29 06:15:59;;;;;;;47.67;22.08;;;;;;;;;;5081393;28;20201;-78
2023/01/29 06:18:25;;;;;;;49.53;24.60;;;;;;;;;;5081540;28;20186;-79
2023/01/29 06:20:52;;;;;;;52.10;25.30;;;;;;;;;;5083151;28;20403;-81
2023/01/29 06:23:18;;;;;;;48.60;26.77;;;;;;;;;;5086320;28;20589;-79
2023/01/29 06:25:44;;;;;;;53.27;26.70;;;;;;;;;;5082512;28;21036;-78
2023/01/29 06:28:10;;;;;;;55.65;27.98;;;;;;;;;;5076106;28;20425;-79
2023/01/29 06:30:36;;;;;;;54.53;26.00;;;;;;;;;;5082569;28;20201;-78
2023/01/29 06:33:02;;;;;;;51.75;24.90;;;;;;;;;;5087255;28;20777;-79
2023/01/29 06:35:28;;;;;;;53.47;26.02;;;;;;;;;;5082771;28;20875;-78
2023/01/29 06:37:54;;;;;;;62.20;29.00;;;;;;;;;;5086817;28;20194;-79
2023/01/29 06:40:20;;;;;;;50.70;26.55;;;;;;;;;;5083651;28;20190;-79
2023/01/29 06:42:46;;;;;;;54.83;26.13;;;;;;;;;;5086364;28;20181;-79
2023/01/29 06:45:12;;;;;;;50.00;24.20;;;;;;;;;;5076458;28;20217;-78
2023/01/29 06:47:38;;;;;;;61.83;27.60;;;;;;;;;;5086601;28;20395;-80
2023/01/29 06:50:04;;;;;;;53.80;26.15;;;;;;;;;;5083344;28;20432;-79
2023/01/29 06:52:30;;;;;;;51.78;24.48;;;;;;;;;;5068975;28;20762;-79
2023/01/29 06:54:56;;;;;;;46.35;23.65;;;;;;;;;;5082809;28;20320;-78
2023/01/29 06:57:22;;;;;;;45.83;21.20;;;;;;;;;;5087405;28;20274;-78
2023/01/29 06:59:48;;;;;;;55.92;26.23;;;;;;;;;;5084143;28;20446;-79
2023/01/29 07:02:14;;;;;;;51.53;25.05;;;;;;;;;;5086897;28;20929;-79
2023/01/29 07:04:41;;;;;;;52.65;21.73;;;;;;;;;;5082872;28;20202;-79
2023/01/29 07:07:12;;;;;;;58.13;26.92;;;;;;;;;;5086181;28;20546;-79
2023/01/29 07:09:38;;;;;;;49.42;23.45;;;;;;;;;;5068960;28;20197;-79
2023/01/29 07:12:04;;;;;;;48.25;26.15;;;;;;;;;;5075012;28;20182;-79
2023/01/29 07:14:30;;;;;;;44.42;24.65;;;;;;;;;;5077117;28;20279;-77
2023/01/29 07:16:56;;;;;;;44.20;22.77;;;;;;;;;;5067375;28;20259;-78
2023/01/29 07:19:22;;;;;;;40.00;19.00;;;;;;;;;;5081973;28;21108;-79
2023/01/29 07:21:48;;;;;;;46.10;25.30;;;;;;;;;;5085829;28;20901;-79
2023/01/29 07:24:15;;;;;;;53.47;27.20;;;;;;;;;;5100973;28;20264;-84
2023/01/29 07:26:41;;;;;;;52.70;28.23;;;;;;;;;;5098701;28;20277;-76
2023/01/29 07:29:07;;;;;;;46.42;26.38;;;;;;;;;;5085036;28;20189;-77
2023/01/29 07:31:33;;;;;;;47.28;22.60;;;;;;;;;;5061015;28;20281;-79
2023/01/29 07:33:59;;;;;;;50.78;26.92;;;;;;;;;;5063838;28;20213;-79
2023/01/29 07:36:26;;;;;;;39.65;19.35;;;;;;;;;;5079412;28;20882;-79
2023/01/29 07:38:51;;;;;;;35.22;19.25;;;;;;;;;;5083333;28;20504;-79
2023/01/29 07:41:18;;;;;;;55.50;25.73;;;;;;;;;;5078750;28;20190;-80
2023/01/29 07:43:43;;;;;;;50.92;26.23;;;;;;;;;;5082880;28;20428;-81
2023/01/29 07:46:09;;;;;;;39.70;20.40;;;;;;;;;;5073248;28;20202;-80
2023/01/29 07:48:38;;;;;;;45.80;23.27;;;;;;;;;;5076688;28;20831;-79
2023/01/29 07:51:05;;;;;;;33.53;16.98;;;;;;;;;;5063403;28;20473;-79
2023/01/29 07:53:31;;;;;;;31.48;14.30;;;;;;;;;;5061622;28;20230;-79
2023/01/29 07:55:57;;;;;;;47.88;22.83;;;;;;;;;;5065386;28;20197;-79
2023/01/29 07:58:23;;;;;;;46.27;22.97;;;;;;;;;;5064219;28;20182;-79
2023/01/29 08:00:49;;;;;;;51.88;25.83;;;;;;;;;;5062078;28;20442;-79
2023/01/29 08:03:16;;;;;;;52.15;26.90;;;;;;;;;;5073759;28;20238;-79
2023/01/29 08:05:43;;;;;;;50.08;27.33;;;;;;;;;;5065081;28;20629;-79
2023/01/29 08:08:09;;;;;;;49.88;26.17;;;;;;;;;;5062944;28;20190;-79
2023/01/29 08:10:39;;;;;;;53.90;29.25;;;;;;;;;;5060073;28;20212;-80
2023/01/29 08:13:06;;;;;;;49.47;20.75;;;;;;;;;;5061896;28;20218;-78
2023/01/29 08:15:32;;;;;;;42.17;22.02;;;;;;;;;;5068835;28;20245;-79
2023/01/29 08:17:58;;;;;;;52.40;27.27;;;;;;;;;;5049974;28;20735;-78
2023/01/29 08:20:24;;;;;;;53.40;26.48;;;;;;;;;;5077950;28;20183;-82
2023/01/29 08:22:58;;;;;;;45.03;25.35;;;;;;;;;;5067705;28;20704;-76
2023/01/29 08:25:24;;;;;;;53.80;28.30;;;;;;;;;;5072820;28;20269;-78
2023/01/29 08:27:50;;;;;;;37.70;21.25;;;;;;;;;;5062928;28;20238;-79
2023/01/29 08:30:16;;;;;;;52.67;26.40;;;;;;;;;;5066047;28;20218;-80
2023/01/29 08:32:41;;;;;;;45.55;23.67;;;;;;;;;;5067916;28;21189;-79
2023/01/29 08:35:08;;;;;;;40.10;22.03;;;;;;;;;;5067819;28;20210;-78
2023/01/29 08:37:34;;;;;;;61.25;28.00;;;;;;;;;;5055187;28;20415;-79
2023/01/29 08:40:00;;;;;;;55.43;23.47;;;;;;;;;;5067366;28;20197;-79
2023/01/29 08:42:26;;;;;;;57.90;28.10;;;;;;;;;;5063707;28;20792;-78
2023/01/29 08:44:52;;;;;;;47.83;25.27;;;;;;;;;;5073235;28;20827;-80
2023/01/29 08:47:18;;;;;;;52.90;26.07;;;;;;;;;;5075249;28;20200;-80
2023/01/29 08:49:44;;;;;;;57.13;27.90;;;;;;;;;;5073698;28;20956;-80
2023/01/29 08:52:10;;;;;;;33.70;18.00;;;;;;;;;;5074750;28;20809;-81
2023/01/29 08:54:35;;;;;;;54.87;26.47;;;;;;;;;;5083493;28;20541;-80
2023/01/29 08:57:02;;;;;;;47.87;25.00;;;;;;;;;;5080150;28;20471;-83
2023/01/29 08:59:28;;;;;;;35.00;19.50;;;;;;;;;;5088090;28;20477;-81
2023/01/29 09:01:54;;;;;;;50.78;25.00;;;;;;;;;;5080621;28;20240;-83
2023/01/29 09:04:20;;;;;;;35.47;20.50;;;;;;;;;;5087310;28;20174;-82
2023/01/29 09:06:48;;;;;;;43.27;21.57;;;;;;;;;;5080351;28;20423;-82
2023/01/29 09:09:15;;;;;;;42.38;23.48;;;;;;;;;;5083945;28;20405;-82
2023/01/29 09:11:43;;;;;;;56.83;26.42;;;;;;;;;;5080231;28;20206;-82
2023/01/29 09:14:15;;;;;;;22.08;12.63;;;;;;;;;;5077491;28;20209;-84
2023/01/29 09:16:44;;;;;;;51.53;26.27;;;;;;;;;;5080092;28;20660;-84
2023/01/29 09:19:10;;;;;;;25.58;13.27;;;;;;;;;;5065625;28;20723;-84
2023/01/29 09:21:36;;;;;;;43.63;23.77;;;;;;;;;;5062904;28;20206;-82
2023/01/29 09:24:02;;;;;;;51.50;27.40;;;;;;;;;;5084024;28;20428;-83
2023/01/29 09:26:28;;;;;;;41.70;22.43;;;;;;;;;;5078059;28;20414;-84
2023/01/29 09:28:54;;;;;;;55.60;26.33;;;;;;;;;;5091042;28;20935;-85
2023/01/29 09:31:20;;;;;;;44.85;25.85;;;;;;;;;;5079718;28;20434;-84
2023/01/29 09:33:46;;;;;;;29.83;17.60;;;;;;;;;;5084097;28;20952;-82
2023/01/29 09:36:13;;;;;;;29.88;16.67;;;;;;;;;;5083771;28;20447;-82
2023/01/29 09:38:39;;;;;;;48.30;25.38;;;;;;;;;;5087805;28;20186;-84
2023/01/29 09:41:29;;;;;;;37.63;19.97;;;;;;;;;;5082471;28;20269;-83
2023/01/29 09:43:58;;;;;;;44.40;23.80;;;;;;;;;;5077476;28;20398;-79
2023/01/29 09:46:35;;;;;;;36.00;21.17;;;;;;;;;;5079477;28;20222;-79
2023/01/29 09:49:06;;;;;;;40.05;20.08;;;;;;;;;;5080816;28;20194;-81
2023/01/29 09:51:38;;;;;;;29.73;15.52;;;;;;;;;;5084360;28;20205;-81
2023/01/29 09:54:10;;;;;;;28.85;16.98;;;;;;;;;;5093714;28;20270;-84
2023/01/29 09:56:36;;;;;;;17.85;13.13;;;;;;;;;;5096230;28;20178;-82
2023/01/29 09:59:09;;;;;;;47.17;25.17;;;;;;;;;;5100400;28;20231;-84
2023/01/29 10:01:53;;;;;;;50.33;24.77;;;;;;;;;;5108403;28;20185;-85
2023/01/29 10:04:25;;;;;;;52.03;25.65;;;;;;;;;;5101078;28;20205;-81
2023/01/29 10:06:51;;;;;;;43.35;24.55;;;;;;;;;;5094375;28;20250;-84
2023/01/29 10:09:36;;;;;;;26.87;13.07;;;;;;;;;;5088618;28;20265;-82
2023/01/29 10:12:16;;;;;;;37.33;20.73;;;;;;;;;;5087217;28;20434;-83
2023/01/29 10:14:58;;;;;;;46.47;24.67;;;;;;;;;;5082819;28;20260;-84
2023/01/29 10:17:27;;;;;;;44.60;22.55;;;;;;;;;;5084991;28;20209;-81
2023/01/29 10:19:56;;;;;;;43.17;22.67;;;;;;;;;;5064660;28;20286;-83
2023/01/29 10:22:34;;;;;;;48.37;22.60;;;;;;;;;;5087668;28;20214;-81
2023/01/29 10:25:03;;;;;;;40.08;17.38;;;;;;;;;;5088464;28;20435;-82
2023/01/29 10:27:33;;;;;;;44.85;23.35;;;;;;;;;;5084844;28;20253;-83
2023/01/29 10:30:00;;;;;;;40.47;21.17;;;;;;;;;;5081452;28;20576;-83
2023/01/29 10:32:37;;;;;;;46.75;23.75;;;;;;;;;;5087171;28;20254;-81
2023/01/29 10:35:05;;;;;;;41.92;23.77;;;;;;;;;;5082780;28;20213;-82
2023/01/29 10:37:39;;;;;;;46.83;24.35;;;;;;;;;;5081385;28;20186;-84
2023/01/29 10:40:32;;;;;;;26.65;14.40;;;;;;;;;;5076899;28;20240;-82
2023/01/29 10:43:05;;;;;;;52.83;26.10;;;;;;;;;;5081084;28;20198;-83
2023/01/29 10:45:39;;;;;;;40.45;20.23;;;;;;;;;;5086869;28;20206;-79
2023/01/29 10:48:24;;;;;;;38.20;19.90;;;;;;;;;;5083841;28;20194;-85
2023/01/29 10:50:52;;;;;;;38.97;19.92;;;;;;;;;;5089534;28;20213;-82
2023/01/29 10:53:30;;;;;;;31.48;17.55;;;;;;;;;;5086963;28;20214;-80
2023/01/29 10:55:59;;;;;;;46.30;24.10;;;;;;;;;;5065079;28;20587;-84
2023/01/29 10:58:47;;;;;;;33.92;19.95;;;;;;;;;;5084618;28;20182;-83
2023/01/29 11:01:13;;;;;;;32.65;17.40;;;;;;;;;;5066283;28;20706;-82
2023/01/29 11:03:44;;;;;;;26.52;14.50;;;;;;;;;;5078800;28;20190;-80
2023/01/29 11:06:14;;;;;;;42.72;21.38;;;;;;;;;;5084682;28;20185;-81
2023/01/29 11:08:46;;;;;;;30.77;18.33;;;;;;;;;;5083971;28;20627;-83
2023/01/29 11:11:14;;;;;;;43.08;22.67;;;;;;;;;;5068840;28;20785;-85
2023/01/29 11:13:46;;;;;;;38.80;22.70;;;;;;;;;;5069895;28;20445;-83
2023/01/29 11:16:12;;;;;;;45.90;23.80;;;;;;;;;;5089344;28;20815;-83
2023/01/29 11:18:48;;;;;;;32.00;17.48;;;;;;;;;;5082228;28;20409;-78
2023/01/29 11:21:20;;;;;;;43.83;23.33;;;;;;;;;;5083942;28;20182;-81
2023/01/29 11:23:47;;;;;;;25.27;13.38;;;;;;;;;;5081931;28;20622;-81
2023/01/29 11:26:17;;;;;;;31.75;18.13;;;;;;;;;;5089707;28;20201;-82
2023/01/29 11:28:44;;;;;;;39.13;22.90;;;;;;;;;;5092891;28;20243;-82
2023/01/29 11:31:26;;;;;;;27.73;16.90;;;;;;;;;;5090879;28;20246;-84
2023/01/29 11:33:53;;;;;;;28.88;16.30;;;;;;;;;;5082991;28;20229;-83
2023/01/29 11:36:20;;;;;;;26.25;14.50;;;;;;;;;;5089023;28;20207;-80
2023/01/29 11:38:46;;;;;;;40.03;21.67;;;;;;;;;;5082852;28;20195;-84
2023/01/29 11:41:21;;;;;;;39.67;19.60;;;;;;;;;;5092012;28;20293;-83
2023/01/29 11:43:47;;;;;;;30.70;16.25;;;;;;;;;;5093536;28;20447;-84
2023/01/29 11:46:14;;;;;;;47.90;26.85;;;;;;;;;;5096096;28;20209;-85
2023/01/29 11:48:42;;;;;;;42.55;23.30;;;;;;;;;;5097428;28;20484;-84
2023/01/29 11:51:12;;;;;;;43.45;21.85;;;;;;;;;;5093849;28;20182;-83
2023/01/29 11:53:41;;;;;;;37.33;21.00;;;;;;;;;;5099048;28;20236;-82
2023/01/29 11:56:37;;;;;;;42.80;19.67;;;;;;;;;;5094274;28;20706;-82
2023/01/29 11:59:04;;;;;;;51.47;22.77;;;;;;;;;;5072633;28;20208;-82
2023/01/29 12:01:40;;;;;;;37.38;21.55;;;;;;;;;;5092207;28;20281;-81
2023/01/29 12:04:17;;;;;;;39.60;19.83;;;;;;;;;;5090787;28;20189;-82
2023/01/29 12:06:47;;;;;;;39.72;20.17;;;;;;;;;;5095295;28;20249;-83
2023/01/29 12:09:18;;;;;;;40.67;20.80;;;;;;;;;;5088934;28;20187;-83
2023/01/29 12:11:44;;;;;;;36.50;22.02;;;;;;;;;;5093968;28;20198;-82
2023/01/29 12:14:32;;;;;;;29.83;16.27;;;;;;;;;;5095051;28;20331;-82
2023/01/29 12:17:18;;;;;;;42.03;24.33;;;;;;;;;;5077305;28;20177;-85
2023/01/29 12:19:50;;;;;;;35.42;16.40;;;;;;;;;;5097167;28;20202;-83
2023/01/29 12:22:35;;;;;;;34.90;17.63;;;;;;;;;;5075626;28;20278;-79
2023/01/29 12:25:20;;;;;;;39.25;17.48;;;;;;;;;;5080417;28;20193;-80
2023/01/29 12:27:49;;;;;;;41.65;21.88;;;;;;;;;;5079402;28;20284;-77
2023/01/29 12:30:17;;;;;;;40.47;20.88;;;;;;;;;;5086042;28;20595;-80
2023/01/29 12:32:43;;;;;;;41.53;21.33;;;;;;;;;;5082637;28;20193;-80
2023/01/29 12:35:39;;;;;;;38.95;23.00;;;;;;;;;;5088132;28;20249;-82
2023/01/29 12:38:10;;;;;;;40.80;22.17;;;;;;;;;;5073064;28;20202;-82
2023/01/29 12:40:47;;;;;;;33.85;18.08;;;;;;;;;;5081015;28;20433;-79
2023/01/29 12:43:18;;;;;;;37.60;20.60;;;;;;;;;;5083383;28;20191;-80
2023/01/29 12:45:45;;;;;;;37.78;22.05;;;;;;;;;;5059986;28;20691;-80
2023/01/29 12:48:14;;;;;;;37.95;20.77;;;;;;;;;;5076662;28;20247;-79
2023/01/29 12:50:40;;;;;;;50.50;26.23;;;;;;;;;;5081670;28;20194;-79
2023/01/29 12:53:22;;;;;;;40.83;22.60;;;;;;;;;;5066179;28;20240;-79
2023/01/29 12:55:54;;;;;;;41.33;24.42;;;;;;;;;;5070500;28;20570;-78
2023/01/29 12:58:20;;;;;;;31.67;16.10;;;;;;;;;;5083066;28;20205;-78
2023/01/29 13:00:47;;;;;;;52.20;25.20;;;;;;;;;;5079151;28;20542;-80
2023/01/29 13:03:29;;;;;;;40.67;23.27;;;;;;;;;;5090568;28;20501;-86
2023/01/29 13:06:09;;;;;;;36.93;20.93;;;;;;;;;;5088918;28;24010;-87
2023/01/29 13:08:41;;;;;;;47.92;22.25;;;;;;;;;;5091453;28;20439;-76
2023/01/29 13:11:13;;;;;;;40.42;22.25;;;;;;;;;;5065989;28;20840;-77
2023/01/29 13:13:51;;;;;;;38.70;23.02;;;;;;;;;;5078615;28;20186;-80
2023/01/29 13:16:21;;;;;;;41.00;20.48;;;;;;;;;;5082142;28;20186;-77
2023/01/29 13:18:51;;;;;;;37.13;19.95;;;;;;;;;;5082095;28;20182;-77
2023/01/29 13:21:18;;;;;;;30.45;17.85;;;;;;;;;;5086296;28;20174;-79
2023/01/29 13:24:04;;;;;;;37.33;21.65;;;;;;;;;;5083184;28;20656;-80
2023/01/29 13:26:31;;;;;;;43.17;24.13;;;;;;;;;;5080627;28;20222;-81
2023/01/29 13:28:57;;;;;;;36.15;20.60;;;;;;;;;;5079310;28;20514;-79
2023/01/29 13:31:27;;;;;;;39.35;17.77;;;;;;;;;;5083769;28;20217;-82
2023/01/29 13:33:58;;;;;;;40.63;20.42;;;;;;;;;;5079876;28;20308;-81
2023/01/29 13:36:29;;;;;;;36.75;19.48;;;;;;;;;;5087238;28;20188;-80
2023/01/29 13:39:07;;;;;;;33.67;19.60;;;;;;;;;;5082659;28;20189;-79
2023/01/29 13:41:40;;;;;;;37.85;21.95;;;;;;;;;;5088207;28;20190;-80
2023/01/29 13:44:08;;;;;;;45.25;23.65;;;;;;;;;;5082462;28;20192;-80
2023/01/29 13:46:39;;;;;;;35.72;19.95;;;;;;;;;;5068495;28;20313;-79
2023/01/29 13:49:05;;;;;;;48.45;24.13;;;;;;;;;;5078518;28;20193;-80
2023/01/29 13:51:34;;;;;;;33.10;19.08;;;;;;;;;;5086014;28;20185;-81
2023/01/29 13:54:03;;;;;;;22.88;10.70;;;;;;;;;;5080954;28;20205;-81
2023/01/29 13:56:35;;;;;;;47.28;24.80;;;;;;;;;;5082086;28;20189;-82
2023/01/29 13:59:02;;;;;;;38.30;21.60;;;;;;;;;;5076326;28;20554;-81
2023/01/29 14:01:46;;;;;;;46.88;25.27;;;;;;;;;;5069537;28;20194;-81
2023/01/29 14:04:20;;;;;;;43.08;23.98;;;;;;;;;;5082807;28;20743;-79
2023/01/29 14:06:47;;;;;;;31.15;18.15;;;;;;;;;;5085715;28;20239;-81
2023/01/29 14:09:32;;;;;;;42.83;23.15;;;;;;;;;;5066148;28;20659;-82
2023/01/29 14:11:58;;;;;;;34.90;19.15;;;;;;;;;;5095233;28;20784;-82
2023/01/29 14:14:43;;;;;;;42.35;23.25;;;;;;;;;;5084804;28;20292;-79
2023/01/29 14:17:09;;;;;;;25.95;12.63;;;;;;;;;;5083475;28;20244;-80
2023/01/29 14:19:36;;;;;;;39.47;22.95;;;;;;;;;;5083707;28;20636;-81
2023/01/29 14:22:02;;;;;;;36.10;22.35;;;;;;;;;;5071817;28;20188;-76
2023/01/29 14:24:30;;;;;;;42.87;22.57;;;;;;;;;;5061784;28;20313;-78
2023/01/29 14:26:56;;;;;;;50.20;24.73;;;;;;;;;;5068079;28;20432;-80
2023/01/29 14:29:27;;;;;;;41.25;21.15;;;;;;;;;;5084194;28;20243;-77
2023/01/29 14:31:54;;;;;;;35.17;19.45;;;;;;;;;;5066681;28;20190;-81
2023/01/29 14:34:20;;;;;;;33.15;17.10;;;;;;;;;;5071741;28;20235;-83
2023/01/29 14:36:53;;;;;;;43.97;21.08;;;;;;;;;;5097768;28;20166;-84
2023/01/29 14:39:27;;;;;;;25.50;13.05;;;;;;;;;;5091818;28;20178;-82
2023/01/29 14:41:53;;;;;;;38.67;22.30;;;;;;;;;;5074057;28;20186;-79
2023/01/29 14:44:38;;;;;;;41.90;22.40;;;;;;;;;;5084616;28;20199;-81
2023/01/29 14:47:04;;;;;;;45.75;22.38;;;;;;;;;;5087770;28;21270;-76
2023/01/29 14:49:50;;;;;;;44.67;24.25;;;;;;;;;;5087393;28;20197;-82
2023/01/29 14:52:18;;;;;;;14.57;9.45;;;;;;;;;;5088762;28;20186;-81
2023/01/29 14:54:45;;;;;;;39.15;21.05;;;;;;;;;;5094876;28;20281;-80
2023/01/29 14:57:14;;;;;;;48.22;23.98;;;;;;;;;;5071897;28;20867;-82
2023/01/29 15:00:00;;;;;;;38.15;17.95;;;;;;;;;;5082048;28;20205;-84
2023/01/29 15:02:33;;;;;;;40.35;21.38;;;;;;;;;;5084114;28;20174;-82
2023/01/29 15:05:01;;;;;;;35.10;18.50;;;;;;;;;;5084770;28;20584;-83